sensor_id;sensor_type;location;lat;lon;timestamp;temperature;humidity
15656;DHT22;7928;43.614;1.456;2022-11-15T00:01:21;13.40;99.90
15656;DHT22;7928;43.614;1.456;2022-11-15T00:03:50;13.40;99.90
15656;DHT22;7928;43.614;1.456;2022-11-15T00:06:18;13.40;99.90
15656;DHT22;7928;43.614;1.456;2022-11-15T00:08:45;13.40;99.90
15656;DHT22;7928;43.614;1.456;2022-11-15T00:11:13;13.30;99.90
15656;DHT22;7928;43.614;1.456;2022-11-15T00:13:41;13.30;99.90
15656;DHT22;7928;43.614;1.456;2022-11-15T00:16:09;13.30;99.90
15656;DHT22;7928;43.614;1.456;2022-11-15T00:18:37;13.30;99.90
15656;DHT22;7928;43.614;1.456;2022-11-15T00:21:06;13.30;99.90
15656;DHT22;7928;43.614;1.456;2022-11-15T00:23:33;13.30;99.90
15656;DHT22;7928;43.614;1.456;2022-11-15T00:26:00;13.30;99.90
15656;DHT22;7928;43.614;1.456;2022-11-15T00:28:27;13.30;99.90
15656;DHT22;7928;43.614;1.456;2022-11-15T00:31:00;13.40;99.90
15656;DHT22;7928;43.614;1.456;2022-11-15T00:33:27;13.40;99.90
15656;DHT22;7928;43.614;1.456;2022-11-15T00:35:58;13.40;99.90
15656;DHT22;7928;43.614;1.456;2022-11-15T00:38:25;13.40;99.90
15656;DHT22;7928;43.614;1.456;2022-11-15T00:40:56;13.40;99.90
15656;DHT22;7928;43.614;1.456;2022-11-15T00:43:23;13.40;99.90
15656;DHT22;7928;43.614;1.456;2022-11-15T00:45:50;13.40;99.90
15656;DHT22;7928;43.614;1.456;2022-11-15T00:48:19;13.40;99.90
15656;DHT22;7928;43.614;1.456;2022-11-15T00:50:46;13.40;99.90
15656;DHT22;7928;43.614;1.456;2022-11-15T00:53:13;13.40;99.90
15656;DHT22;7928;43.614;1.456;2022-11-15T00:55:40;13.50;99.90
15656;DHT22;7928;43.614;1.456;2022-11-15T00:58:08;13.50;99.90
15656;DHT22;7928;43.614;1.456;2022-11-15T01:00:35;13.50;99.90
15656;DHT22;7928;43.614;1.456;2022-11-15T01:03:02;13.40;99.90
15656;DHT22;7928;43.614;1.456;2022-11-15T01:05:30;13.50;99.90
15656;DHT22;7928;43.614;1.456;2022-11-15T01:07:57;13.40;99.90
15656;DHT22;7928;43.614;1.456;2022-11-15T01:10:24;13.40;99.90
15656;DHT22;7928;43.614;1.456;2022-11-15T01:12:51;13.30;99.90
15656;DHT22;7928;43.614;1.456;2022-11-15T01:15:18;13.30;99.90
15656;DHT22;7928;43.614;1.456;2022-11-15T01:17:45;13.30;99.90
15656;DHT22;7928;43.614;1.456;2022-11-15T01:20:12;13.30;99.90
15656;DHT22;7928;43.614;1.456;2022-11-15T01:22:41;13.30;99.90
15656;DHT22;7928;43.614;1.456;2022-11-15T01:25:08;13.30;99.90
15656;DHT22;7928;43.614;1.456;2022-11-15T01:27:35;13.30;99.90
15656;DHT22;7928;43.614;1.456;2022-11-15T01:30:02;13.40;99.90
15656;DHT22;7928;43.614;1.456;2022-11-15T01:32:30;13.40;99.90
15656;DHT22;7928;43.614;1.456;2022-11-15T01:34:57;13.40;99.90
15656;DHT22;7928;43.614;1.456;2022-11-15T01:37:24;13.40;99.90
15656;DHT22;7928;43.614;1.456;2022-11-15T01:39:52;13.40;99.90
15656;DHT22;7928;43.614;1.456;2022-11-15T01:42:20;13.40;99.90
15656;DHT22;7928;43.614;1.456;2022-11-15T01:44:48;13.40;99.90
15656;DHT22;7928;43.614;1.456;2022-11-15T01:47:17;13.30;99.90
15656;DHT22;7928;43.614;1.456;2022-11-15T01:49:50;13.30;99.90
15656;DHT22;7928;43.614;1.456;2022-11-15T01:52:20;13.30;99.90
15656;DHT22;7928;43.614;1.456;2022-11-15T01:54:55;13.30;99.90
15656;DHT22;7928;43.614;1.456;2022-11-15T01:57:23;13.30;99.90
15656;DHT22;7928;43.614;1.456;2022-11-15T01:59:50;13.30;99.90
15656;DHT22;7928;43.614;1.456;2022-11-15T02:02:18;13.30;99.90
15656;DHT22;7928;43.614;1.456;2022-11-15T02:04:46;13.30;99.90
15656;DHT22;7928;43.614;1.456;2022-11-15T02:07:15;13.30;99.90
15656;DHT22;7928;43.614;1.456;2022-11-15T02:09:43;13.20;99.90
15656;DHT22;7928;43.614;1.456;2022-11-15T02:12:14;13.30;99.90
15656;DHT22;7928;43.614;1.456;2022-11-15T02:14:45;13.30;99.90
15656;DHT22;7928;43.614;1.456;2022-11-15T02:17:27;13.30;99.90
15656;DHT22;7928;43.614;1.456;2022-11-15T02:20:27;13.30;99.90
15656;DHT22;7928;43.614;1.456;2022-11-15T02:23:11;13.30;99.90
15656;DHT22;7928;43.614;1.456;2022-11-15T02:25:54;13.30;99.90
15656;DHT22;7928;43.614;1.456;2022-11-15T02:28:55;13.40;99.90
15656;DHT22;7928;43.614;1.456;2022-11-15T02:31:29;13.40;99.90
15656;DHT22;7928;43.614;1.456;2022-11-15T02:34:05;13.40;99.90
15656;DHT22;7928;43.614;1.456;2022-11-15T02:36:41;13.40;99.90
15656;DHT22;7928;43.614;1.456;2022-11-15T02:39:17;13.40;99.90
15656;DHT22;7928;43.614;1.456;2022-11-15T02:41:49;13.40;99.90
15656;DHT22;7928;43.614;1.456;2022-11-15T02:44:23;13.30;99.90
15656;DHT22;7928;43.614;1.456;2022-11-15T02:46:53;13.30;99.90
15656;DHT22;7928;43.614;1.456;2022-11-15T02:49:41;13.30;99.90
15656;DHT22;7928;43.614;1.456;2022-11-15T02:52:14;13.30;99.90
15656;DHT22;7928;43.614;1.456;2022-11-15T02:54:41;13.30;99.90
15656;DHT22;7928;43.614;1.456;2022-11-15T02:57:13;13.30;99.90
15656;DHT22;7928;43.614;1.456;2022-11-15T03:00:07;13.40;99.90
15656;DHT22;7928;43.614;1.456;2022-11-15T03:03:00;13.30;99.90
15656;DHT22;7928;43.614;1.456;2022-11-15T03:05:39;13.40;99.90
15656;DHT22;7928;43.614;1.456;2022-11-15T03:08:12;13.40;99.90
15656;DHT22;7928;43.614;1.456;2022-11-15T03:10:47;13.40;99.90
15656;DHT22;7928;43.614;1.456;2022-11-15T03:13:24;13.40;99.90
15656;DHT22;7928;43.614;1.456;2022-11-15T03:15:57;13.40;99.90
15656;DHT22;7928;43.614;1.456;2022-11-15T03:18:32;13.40;99.90
15656;DHT22;7928;43.614;1.456;2022-11-15T03:21:03;13.40;99.90
15656;DHT22;7928;43.614;1.456;2022-11-15T03:23:32;13.40;99.90
15656;DHT22;7928;43.614;1.456;2022-11-15T03:26:00;13.40;99.90
15656;DHT22;7928;43.614;1.456;2022-11-15T03:28:31;13.50;99.90
15656;DHT22;7928;43.614;1.456;2022-11-15T03:31:02;13.50;99.90
15656;DHT22;7928;43.614;1.456;2022-11-15T03:33:54;13.50;99.90
15656;DHT22;7928;43.614;1.456;2022-11-15T03:36:23;13.50;99.90
15656;DHT22;7928;43.614;1.456;2022-11-15T03:38:53;13.60;99.90
15656;DHT22;7928;43.614;1.456;2022-11-15T03:41:26;13.60;99.90
15656;DHT22;7928;43.614;1.456;2022-11-15T03:43:58;13.60;99.90
15656;DHT22;7928;43.614;1.456;2022-11-15T03:46:31;13.70;99.90
15656;DHT22;7928;43.614;1.456;2022-11-15T03:49:06;13.70;99.90
15656;DHT22;7928;43.614;1.456;2022-11-15T03:51:35;13.70;99.90
15656;DHT22;7928;43.614;1.456;2022-11-15T03:54:03;13.70;99.90
15656;DHT22;7928;43.614;1.456;2022-11-15T03:56:31;13.70;99.90
15656;DHT22;7928;43.614;1.456;2022-11-15T03:58:58;13.70;99.90
15656;DHT22;7928;43.614;1.456;2022-11-15T04:01:25;13.70;99.90
15656;DHT22;7928;43.614;1.456;2022-11-15T04:03:52;13.70;99.90
15656;DHT22;7928;43.614;1.456;2022-11-15T04:06:21;13.70;99.90
15656;DHT22;7928;43.614;1.456;2022-11-15T04:08:48;13.70;99.90
15656;DHT22;7928;43.614;1.456;2022-11-15T04:11:15;13.70;99.90
15656;DHT22;7928;43.614;1.456;2022-11-15T04:13:42;13.70;99.90
15656;DHT22;7928;43.614;1.456;2022-11-15T04:16:09;13.70;99.90
15656;DHT22;7928;43.614;1.456;2022-11-15T04:18:36;13.70;99.90
15656;DHT22;7928;43.614;1.456;2022-11-15T04:21:03;13.70;99.90
15656;DHT22;7928;43.614;1.456;2022-11-15T04:23:49;13.60;99.90
15656;DHT22;7928;43.614;1.456;2022-11-15T04:26:34;13.60;99.90
15656;DHT22;7928;43.614;1.456;2022-11-15T04:29:01;13.60;99.90
15656;DHT22;7928;43.614;1.456;2022-11-15T04:31:57;13.60;99.90
15656;DHT22;7928;43.614;1.456;2022-11-15T04:34:24;13.60;99.90
15656;DHT22;7928;43.614;1.456;2022-11-15T04:36:51;13.60;99.90
15656;DHT22;7928;43.614;1.456;2022-11-15T04:39:37;13.60;99.90
15656;DHT22;7928;43.614;1.456;2022-11-15T04:42:04;13.70;99.90
15656;DHT22;7928;43.614;1.456;2022-11-15T04:44:31;13.70;99.90
15656;DHT22;7928;43.614;1.456;2022-11-15T04:46:58;13.70;99.90
15656;DHT22;7928;43.614;1.456;2022-11-15T04:49:25;13.70;99.90
15656;DHT22;7928;43.614;1.456;2022-11-15T04:51:53;13.70;99.90
15656;DHT22;7928;43.614;1.456;2022-11-15T04:54:20;13.70;99.90
15656;DHT22;7928;43.614;1.456;2022-11-15T04:56:48;13.70;99.90
15656;DHT22;7928;43.614;1.456;2022-11-15T04:59:15;13.80;99.90
15656;DHT22;7928;43.614;1.456;2022-11-15T05:01:43;13.80;99.90
15656;DHT22;7928;43.614;1.456;2022-11-15T05:04:10;13.80;99.90
15656;DHT22;7928;43.614;1.456;2022-11-15T05:06:46;13.80;99.90
15656;DHT22;7928;43.614;1.456;2022-11-15T05:09:13;13.90;99.90
15656;DHT22;7928;43.614;1.456;2022-11-15T05:11:40;13.90;99.90
15656;DHT22;7928;43.614;1.456;2022-11-15T05:14:14;13.90;99.90
15656;DHT22;7928;43.614;1.456;2022-11-15T05:16:48;14.00;99.90
15656;DHT22;7928;43.614;1.456;2022-11-15T05:19:15;14.00;99.90
15656;DHT22;7928;43.614;1.456;2022-11-15T05:21:42;14.10;99.90
15656;DHT22;7928;43.614;1.456;2022-11-15T05:24:10;14.10;99.90
15656;DHT22;7928;43.614;1.456;2022-11-15T05:26:37;14.10;99.90
15656;DHT22;7928;43.614;1.456;2022-11-15T05:29:04;14.10;99.90
15656;DHT22;7928;43.614;1.456;2022-11-15T05:31:32;14.10;99.90
15656;DHT22;7928;43.614;1.456;2022-11-15T05:34:01;14.10;99.90
15656;DHT22;7928;43.614;1.456;2022-11-15T05:36:33;14.10;99.90
15656;DHT22;7928;43.614;1.456;2022-11-15T05:39:06;14.10;99.90
15656;DHT22;7928;43.614;1.456;2022-11-15T05:41:35;14.20;99.90
15656;DHT22;7928;43.614;1.456;2022-11-15T05:44:04;14.20;99.90
15656;DHT22;7928;43.614;1.456;2022-11-15T05:46:34;14.20;99.90
15656;DHT22;7928;43.614;1.456;2022-11-15T05:49:02;14.20;99.90
15656;DHT22;7928;43.614;1.456;2022-11-15T05:51:29;14.20;99.90
15656;DHT22;7928;43.614;1.456;2022-11-15T05:53:57;14.20;99.90
15656;DHT22;7928;43.614;1.456;2022-11-15T05:56:25;14.20;99.90
15656;DHT22;7928;43.614;1.456;2022-11-15T05:58:53;14.20;99.90
15656;DHT22;7928;43.614;1.456;2022-11-15T06:01:21;14.30;99.90
15656;DHT22;7928;43.614;1.456;2022-11-15T06:03:50;14.30;99.90
15656;DHT22;7928;43.614;1.456;2022-11-15T06:06:17;14.30;99.90
15656;DHT22;7928;43.614;1.456;2022-11-15T06:08:44;14.30;99.90
15656;DHT22;7928;43.614;1.456;2022-11-15T06:11:13;14.30;99.90
15656;DHT22;7928;43.614;1.456;2022-11-15T06:13:40;14.30;99.90
15656;DHT22;7928;43.614;1.456;2022-11-15T06:16:07;14.30;99.90
15656;DHT22;7928;43.614;1.456;2022-11-15T06:18:35;14.30;99.90
15656;DHT22;7928;43.614;1.456;2022-11-15T06:21:04;14.30;99.90
15656;DHT22;7928;43.614;1.456;2022-11-15T06:23:32;14.30;99.90
15656;DHT22;7928;43.614;1.456;2022-11-15T06:26:00;14.30;99.90
15656;DHT22;7928;43.614;1.456;2022-11-15T06:28:28;14.30;99.90
15656;DHT22;7928;43.614;1.456;2022-11-15T06:30:55;14.30;99.90
15656;DHT22;7928;43.614;1.456;2022-11-15T06:33:23;14.30;99.90
15656;DHT22;7928;43.614;1.456;2022-11-15T06:35:50;14.30;99.90
15656;DHT22;7928;43.614;1.456;2022-11-15T06:38:19;14.30;99.90
15656;DHT22;7928;43.614;1.456;2022-11-15T06:40:46;14.30;99.90
15656;DHT22;7928;43.614;1.456;2022-11-15T06:43:13;14.40;99.90
15656;DHT22;7928;43.614;1.456;2022-11-15T06:45:40;14.40;99.90
15656;DHT22;7928;43.614;1.456;2022-11-15T06:48:07;14.40;99.90
15656;DHT22;7928;43.614;1.456;2022-11-15T06:50:34;14.40;99.90
15656;DHT22;7928;43.614;1.456;2022-11-15T06:53:02;14.40;99.90
15656;DHT22;7928;43.614;1.456;2022-11-15T06:55:30;14.40;99.90
15656;DHT22;7928;43.614;1.456;2022-11-15T06:57:58;14.50;99.90
15656;DHT22;7928;43.614;1.456;2022-11-15T07:00:25;14.50;99.90
15656;DHT22;7928;43.614;1.456;2022-11-15T07:02:52;14.60;99.90
15656;DHT22;7928;43.614;1.456;2022-11-15T07:05:19;14.60;99.90
15656;DHT22;7928;43.614;1.456;2022-11-15T07:07:51;14.60;99.90
15656;DHT22;7928;43.614;1.456;2022-11-15T07:10:19;14.60;99.90
15656;DHT22;7928;43.614;1.456;2022-11-15T07:12:48;14.60;99.90
15656;DHT22;7928;43.614;1.456;2022-11-15T07:15:15;14.70;99.90
15656;DHT22;7928;43.614;1.456;2022-11-15T07:17:42;14.70;99.90
15656;DHT22;7928;43.614;1.456;2022-11-15T07:20:10;14.80;99.90
15656;DHT22;7928;43.614;1.456;2022-11-15T07:22:38;14.80;99.90
15656;DHT22;7928;43.614;1.456;2022-11-15T07:25:07;14.80;99.90
15656;DHT22;7928;43.614;1.456;2022-11-15T07:27:34;14.80;99.90
15656;DHT22;7928;43.614;1.456;2022-11-15T07:30:04;14.80;99.90
15656;DHT22;7928;43.614;1.456;2022-11-15T07:32:31;14.80;99.90
15656;DHT22;7928;43.614;1.456;2022-11-15T07:34:58;14.80;99.90
15656;DHT22;7928;43.614;1.456;2022-11-15T07:37:25;14.80;99.90
15656;DHT22;7928;43.614;1.456;2022-11-15T07:39:52;14.90;99.90
15656;DHT22;7928;43.614;1.456;2022-11-15T07:42:19;14.90;99.90
15656;DHT22;7928;43.614;1.456;2022-11-15T07:45:06;14.90;99.90
15656;DHT22;7928;43.614;1.456;2022-11-15T07:47:33;15.00;99.90
15656;DHT22;7928;43.614;1.456;2022-11-15T07:50:01;15.00;99.90
15656;DHT22;7928;43.614;1.456;2022-11-15T07:52:28;15.00;99.90
15656;DHT22;7928;43.614;1.456;2022-11-15T07:54:55;15.00;99.90
15656;DHT22;7928;43.614;1.456;2022-11-15T07:57:22;15.00;99.90
15656;DHT22;7928;43.614;1.456;2022-11-15T07:59:49;15.00;99.90
15656;DHT22;7928;43.614;1.456;2022-11-15T08:02:18;15.00;99.90
15656;DHT22;7928;43.614;1.456;2022-11-15T08:04:45;15.10;99.90
15656;DHT22;7928;43.614;1.456;2022-11-15T08:07:12;15.10;99.90
15656;DHT22;7928;43.614;1.456;2022-11-15T08:09:39;15.10;99.90
15656;DHT22;7928;43.614;1.456;2022-11-15T08:12:07;15.10;99.90
15656;DHT22;7928;43.614;1.456;2022-11-15T08:14:34;15.20;99.90
15656;DHT22;7928;43.614;1.456;2022-11-15T08:17:02;15.20;99.90
15656;DHT22;7928;43.614;1.456;2022-11-15T08:19:30;15.40;99.90
15656;DHT22;7928;43.614;1.456;2022-11-15T08:21:58;15.30;99.90
15656;DHT22;7928;43.614;1.456;2022-11-15T08:24:25;15.30;99.90
15656;DHT22;7928;43.614;1.456;2022-11-15T08:26:52;15.40;99.90
15656;DHT22;7928;43.614;1.456;2022-11-15T08:29:19;15.40;99.90
15656;DHT22;7928;43.614;1.456;2022-11-15T08:31:46;15.50;99.90
15656;DHT22;7928;43.614;1.456;2022-11-15T08:34:13;15.50;99.90
15656;DHT22;7928;43.614;1.456;2022-11-15T08:36:42;15.50;99.90
15656;DHT22;7928;43.614;1.456;2022-11-15T08:39:10;15.60;99.90
15656;DHT22;7928;43.614;1.456;2022-11-15T08:41:38;15.70;99.90
15656;DHT22;7928;43.614;1.456;2022-11-15T08:44:05;15.90;99.90
15656;DHT22;7928;43.614;1.456;2022-11-15T08:46:32;16.00;99.90
15656;DHT22;7928;43.614;1.456;2022-11-15T08:48:59;16.20;99.90
15656;DHT22;7928;43.614;1.456;2022-11-15T08:51:26;16.30;99.90
15656;DHT22;7928;43.614;1.456;2022-11-15T08:53:54;16.40;99.90
15656;DHT22;7928;43.614;1.456;2022-11-15T08:56:21;16.50;99.90
15656;DHT22;7928;43.614;1.456;2022-11-15T08:58:49;16.70;99.90
15656;DHT22;7928;43.614;1.456;2022-11-15T09:01:18;16.60;99.90
15656;DHT22;7928;43.614;1.456;2022-11-15T09:03:45;16.50;99.90
15656;DHT22;7928;43.614;1.456;2022-11-15T09:06:12;16.50;99.90
15656;DHT22;7928;43.614;1.456;2022-11-15T09:08:40;16.40;99.90
15656;DHT22;7928;43.614;1.456;2022-11-15T09:11:10;16.30;99.90
15656;DHT22;7928;43.614;1.456;2022-11-15T09:13:38;16.30;99.90
15656;DHT22;7928;43.614;1.456;2022-11-15T09:16:05;16.30;99.90
15656;DHT22;7928;43.614;1.456;2022-11-15T09:18:32;16.30;99.90
15656;DHT22;7928;43.614;1.456;2022-11-15T09:21:00;16.20;99.90
15656;DHT22;7928;43.614;1.456;2022-11-15T09:23:28;16.20;99.90
15656;DHT22;7928;43.614;1.456;2022-11-15T09:25:59;16.40;99.90
15656;DHT22;7928;43.614;1.456;2022-11-15T09:28:28;16.50;99.90
15656;DHT22;7928;43.614;1.456;2022-11-15T09:30:57;16.80;99.90
15656;DHT22;7928;43.614;1.456;2022-11-15T09:33:25;17.00;99.90
15656;DHT22;7928;43.614;1.456;2022-11-15T09:35:52;17.40;99.90
15656;DHT22;7928;43.614;1.456;2022-11-15T09:38:20;18.00;99.90
15656;DHT22;7928;43.614;1.456;2022-11-15T09:40:53;18.70;99.90
15656;DHT22;7928;43.614;1.456;2022-11-15T09:43:34;19.00;99.90
15656;DHT22;7928;43.614;1.456;2022-11-15T09:46:15;19.60;99.90
15656;DHT22;7928;43.614;1.456;2022-11-15T09:48:49;19.20;99.90
15656;DHT22;7928;43.614;1.456;2022-11-15T09:51:24;18.70;99.90
15656;DHT22;7928;43.614;1.456;2022-11-15T09:53:58;17.90;99.90
15656;DHT22;7928;43.614;1.456;2022-11-15T09:56:29;17.80;99.90
15656;DHT22;7928;43.614;1.456;2022-11-15T09:59:13;17.80;99.90
15656;DHT22;7928;43.614;1.456;2022-11-15T10:01:47;17.80;99.90
15656;DHT22;7928;43.614;1.456;2022-11-15T10:04:16;17.80;99.90
15656;DHT22;7928;43.614;1.456;2022-11-15T10:06:51;17.60;99.90
15656;DHT22;7928;43.614;1.456;2022-11-15T10:09:24;17.50;99.90
15656;DHT22;7928;43.614;1.456;2022-11-15T10:11:52;17.40;99.90
15656;DHT22;7928;43.614;1.456;2022-11-15T10:14:23;17.40;99.90
15656;DHT22;7928;43.614;1.456;2022-11-15T10:17:15;17.50;99.90
15656;DHT22;7928;43.614;1.456;2022-11-15T10:19:53;17.80;99.90
15656;DHT22;7928;43.614;1.456;2022-11-15T10:22:26;18.10;99.90
15656;DHT22;7928;43.614;1.456;2022-11-15T10:25:00;18.50;99.90
15656;DHT22;7928;43.614;1.456;2022-11-15T10:27:33;20.30;99.90
15656;DHT22;7928;43.614;1.456;2022-11-15T10:30:06;23.80;99.90
15656;DHT22;7928;43.614;1.456;2022-11-15T10:32:37;26.50;99.90
15656;DHT22;7928;43.614;1.456;2022-11-15T10:35:17;28.10;99.90
15656;DHT22;7928;43.614;1.456;2022-11-15T10:37:44;28.40;99.90
15656;DHT22;7928;43.614;1.456;2022-11-15T10:40:17;27.20;1.00
15656;DHT22;7928;43.614;1.456;2022-11-15T10:42:45;27.30;99.90
15656;DHT22;7928;43.614;1.456;2022-11-15T10:45:28;25.60;1.00
15656;DHT22;7928;43.614;1.456;2022-11-15T10:48:20;23.50;1.00
15656;DHT22;7928;43.614;1.456;2022-11-15T10:50:49;22.10;1.00
15656;DHT22;7928;43.614;1.456;2022-11-15T10:53:23;21.60;99.90
15656;DHT22;7928;43.614;1.456;2022-11-15T10:55:53;22.00;99.90
15656;DHT22;7928;43.614;1.456;2022-11-15T10:58:27;22.00;99.90
15656;DHT22;7928;43.614;1.456;2022-11-15T11:01:08;20.90;6.60
15656;DHT22;7928;43.614;1.456;2022-11-15T11:03:37;20.40;30.10
15656;DHT22;7928;43.614;1.456;2022-11-15T11:06:07;20.10;50.70
15656;DHT22;7928;43.614;1.456;2022-11-15T11:08:35;20.20;67.40
15656;DHT22;7928;43.614;1.456;2022-11-15T11:11:03;21.40;99.90
15656;DHT22;7928;43.614;1.456;2022-11-15T11:13:33;21.00;99.90
15656;DHT22;7928;43.614;1.456;2022-11-15T11:16:29;20.60;99.90
15656;DHT22;7928;43.614;1.456;2022-11-15T11:19:05;20.20;99.90
15656;DHT22;7928;43.614;1.456;2022-11-15T11:21:40;20.10;99.90
15656;DHT22;7928;43.614;1.456;2022-11-15T11:24:14;20.00;99.90
15656;DHT22;7928;43.614;1.456;2022-11-15T11:26:49;20.30;99.90
15656;DHT22;7928;43.614;1.456;2022-11-15T11:29:32;20.90;99.90
15656;DHT22;7928;43.614;1.456;2022-11-15T11:32:09;21.50;99.90
15656;DHT22;7928;43.614;1.456;2022-11-15T11:34:50;22.70;99.90
15656;DHT22;7928;43.614;1.456;2022-11-15T11:37:28;24.70;99.90
15656;DHT22;7928;43.614;1.456;2022-11-15T11:40:10;24.30;1.00
15656;DHT22;7928;43.614;1.456;2022-11-15T11:42:46;25.60;1.00
15656;DHT22;7928;43.614;1.456;2022-11-15T11:45:24;28.30;99.90
15656;DHT22;7928;43.614;1.456;2022-11-15T11:48:00;26.90;99.90
15656;DHT22;7928;43.614;1.456;2022-11-15T11:50:30;25.00;1.00
15656;DHT22;7928;43.614;1.456;2022-11-15T11:53:03;23.70;1.00
15656;DHT22;7928;43.614;1.456;2022-11-15T11:55:34;22.90;1.00
15656;DHT22;7928;43.614;1.456;2022-11-15T11:58:09;21.60;1.00
15656;DHT22;7928;43.614;1.456;2022-11-15T12:00:40;20.80;4.90
15656;DHT22;7928;43.614;1.456;2022-11-15T12:03:12;20.60;15.80
15656;DHT22;7928;43.614;1.456;2022-11-15T12:05:43;20.40;24.00
15656;DHT22;7928;43.614;1.456;2022-11-15T12:08:27;20.50;24.20
15656;DHT22;7928;43.614;1.456;2022-11-15T12:11:02;20.50;26.00
15656;DHT22;7928;43.614;1.456;2022-11-15T12:13:30;20.60;27.00
15656;DHT22;7928;43.614;1.456;2022-11-15T12:16:07;21.00;16.50
15656;DHT22;7928;43.614;1.456;2022-11-15T12:18:37;21.90;1.00
15656;DHT22;7928;43.614;1.456;2022-11-15T12:21:07;22.30;1.00
15656;DHT22;7928;43.614;1.456;2022-11-15T12:23:41;22.70;1.00
15656;DHT22;7928;43.614;1.456;2022-11-15T12:26:11;24.70;1.00
15656;DHT22;7928;43.614;1.456;2022-11-15T12:28:46;24.10;1.00
15656;DHT22;7928;43.614;1.456;2022-11-15T12:31:20;23.10;1.00
15656;DHT22;7928;43.614;1.456;2022-11-15T12:33:49;22.40;1.00
15656;DHT22;7928;43.614;1.456;2022-11-15T12:36:35;22.00;1.00
15656;DHT22;7928;43.614;1.456;2022-11-15T12:39:04;21.70;1.00
15656;DHT22;7928;43.614;1.456;2022-11-15T12:41:33;21.30;1.00
15656;DHT22;7928;43.614;1.456;2022-11-15T12:44:01;21.00;1.00
15656;DHT22;7928;43.614;1.456;2022-11-15T12:47:01;20.70;15.70
15656;DHT22;7928;43.614;1.456;2022-11-15T12:49:47;20.50;24.60
15656;DHT22;7928;43.614;1.456;2022-11-15T12:52:15;20.40;21.60
15656;DHT22;7928;43.614;1.456;2022-11-15T12:54:59;20.30;26.90
15656;DHT22;7928;43.614;1.456;2022-11-15T12:57:32;20.10;38.20
15656;DHT22;7928;43.614;1.456;2022-11-15T13:00:01;20.10;39.70
15656;DHT22;7928;43.614;1.456;2022-11-15T13:02:33;19.90;45.40
15656;DHT22;7928;43.614;1.456;2022-11-15T13:06:04;20.30;39.10
15656;DHT22;7928;43.614;1.456;2022-11-15T13:08:48;21.50;24.10
15656;DHT22;7928;43.614;1.456;2022-11-15T13:11:45;21.50;1.00
15656;DHT22;7928;43.614;1.456;2022-11-15T13:14:44;21.50;1.00
15656;DHT22;7928;43.614;1.456;2022-11-15T13:17:30;21.00;3.00
15656;DHT22;7928;43.614;1.456;2022-11-15T13:20:02;20.40;27.20
15656;DHT22;7928;43.614;1.456;2022-11-15T13:22:40;20.00;44.10
15656;DHT22;7928;43.614;1.456;2022-11-15T13:25:57;19.80;57.70
15656;DHT22;7928;43.614;1.456;2022-11-15T13:28:31;19.60;60.10
15656;DHT22;7928;43.614;1.456;2022-11-15T13:31:00;19.60;67.20
15656;DHT22;7928;43.614;1.456;2022-11-15T13:33:31;19.60;64.20
15656;DHT22;7928;43.614;1.456;2022-11-15T13:36:00;19.50;77.50
15656;DHT22;7928;43.614;1.456;2022-11-15T13:38:31;19.50;86.30
15656;DHT22;7928;43.614;1.456;2022-11-15T13:41:09;19.40;87.50
15656;DHT22;7928;43.614;1.456;2022-11-15T13:43:37;19.40;80.50
15656;DHT22;7928;43.614;1.456;2022-11-15T13:46:11;19.40;87.60
15656;DHT22;7928;43.614;1.456;2022-11-15T13:48:39;19.20;91.00
15656;DHT22;7928;43.614;1.456;2022-11-15T13:51:12;19.00;95.10
15656;DHT22;7928;43.614;1.456;2022-11-15T13:53:45;19.00;97.50
15656;DHT22;7928;43.614;1.456;2022-11-15T13:56:14;19.00;94.60
15656;DHT22;7928;43.614;1.456;2022-11-15T13:58:41;18.80;97.70
15656;DHT22;7928;43.614;1.456;2022-11-15T14:01:14;18.60;99.90
15656;DHT22;7928;43.614;1.456;2022-11-15T14:03:48;18.70;99.90
15656;DHT22;7928;43.614;1.456;2022-11-15T14:06:18;18.80;99.90
15656;DHT22;7928;43.614;1.456;2022-11-15T14:09:04;18.90;97.60
15656;DHT22;7928;43.614;1.456;2022-11-15T14:11:31;18.70;95.20
15656;DHT22;7928;43.614;1.456;2022-11-15T14:14:13;18.70;96.60
15656;DHT22;7928;43.614;1.456;2022-11-15T14:16:42;18.60;98.90
15656;DHT22;7928;43.614;1.456;2022-11-15T14:19:12;18.60;99.90
15656;DHT22;7928;43.614;1.456;2022-11-15T14:24:42;18.60;99.90
15656;DHT22;7928;43.614;1.456;2022-11-15T14:27:20;18.60;99.80
15656;DHT22;7928;43.614;1.456;2022-11-15T14:29:48;18.50;99.90
15656;DHT22;7928;43.614;1.456;2022-11-15T14:32:16;18.50;99.90
15656;DHT22;7928;43.614;1.456;2022-11-15T14:34:44;18.50;99.90
15656;DHT22;7928;43.614;1.456;2022-11-15T14:37:19;18.60;99.90
15656;DHT22;7928;43.614;1.456;2022-11-15T14:39:49;18.40;99.90
15656;DHT22;7928;43.614;1.456;2022-11-15T14:42:16;18.40;99.90
15656;DHT22;7928;43.614;1.456;2022-11-15T14:44:44;18.50;99.90
15656;DHT22;7928;43.614;1.456;2022-11-15T14:47:11;18.50;99.90
15656;DHT22;7928;43.614;1.456;2022-11-15T14:49:38;18.50;99.90
15656;DHT22;7928;43.614;1.456;2022-11-15T14:52:16;18.50;99.90
15656;DHT22;7928;43.614;1.456;2022-11-15T14:54:44;18.40;99.90
15656;DHT22;7928;43.614;1.456;2022-11-15T14:57:13;18.40;99.90
15656;DHT22;7928;43.614;1.456;2022-11-15T14:59:40;18.30;99.90
15656;DHT22;7928;43.614;1.456;2022-11-15T15:02:11;18.30;99.90
15656;DHT22;7928;43.614;1.456;2022-11-15T15:04:41;18.20;99.90
15656;DHT22;7928;43.614;1.456;2022-11-15T15:07:08;18.20;99.90
15656;DHT22;7928;43.614;1.456;2022-11-15T15:09:35;18.30;99.90
15656;DHT22;7928;43.614;1.456;2022-11-15T15:12:03;18.40;99.90
15656;DHT22;7928;43.614;1.456;2022-11-15T15:14:31;18.30;99.90
15656;DHT22;7928;43.614;1.456;2022-11-15T15:16:58;18.30;99.90
15656;DHT22;7928;43.614;1.456;2022-11-15T15:19:25;18.10;99.90
15656;DHT22;7928;43.614;1.456;2022-11-15T15:21:52;18.10;99.90
15656;DHT22;7928;43.614;1.456;2022-11-15T15:24:19;18.00;99.90
15656;DHT22;7928;43.614;1.456;2022-11-15T15:26:46;18.00;99.90
15656;DHT22;7928;43.614;1.456;2022-11-15T15:29:13;17.90;99.90
15656;DHT22;7928;43.614;1.456;2022-11-15T15:31:42;17.90;99.90
15656;DHT22;7928;43.614;1.456;2022-11-15T15:34:09;17.90;99.90
15656;DHT22;7928;43.614;1.456;2022-11-15T15:36:36;17.90;99.90
15656;DHT22;7928;43.614;1.456;2022-11-15T15:39:03;17.80;99.90
15656;DHT22;7928;43.614;1.456;2022-11-15T15:41:30;17.80;99.90
15656;DHT22;7928;43.614;1.456;2022-11-15T15:43:57;17.80;99.90
15656;DHT22;7928;43.614;1.456;2022-11-15T15:46:24;17.80;99.90
15656;DHT22;7928;43.614;1.456;2022-11-15T15:48:53;17.80;99.90
15656;DHT22;7928;43.614;1.456;2022-11-15T15:51:20;17.70;99.90
15656;DHT22;7928;43.614;1.456;2022-11-15T15:53:47;17.70;99.90
15656;DHT22;7928;43.614;1.456;2022-11-15T15:56:16;17.70;99.90
15656;DHT22;7928;43.614;1.456;2022-11-15T15:58:43;17.60;99.90
15656;DHT22;7928;43.614;1.456;2022-11-15T16:01:10;17.70;99.90
15656;DHT22;7928;43.614;1.456;2022-11-15T16:03:37;17.60;99.90
15656;DHT22;7928;43.614;1.456;2022-11-15T16:09:13;17.60;99.90
15656;DHT22;7928;43.614;1.456;2022-11-15T16:11:40;17.50;99.90
15656;DHT22;7928;43.614;1.456;2022-11-15T16:14:07;17.50;99.90
15656;DHT22;7928;43.614;1.456;2022-11-15T16:16:35;17.50;99.90
15656;DHT22;7928;43.614;1.456;2022-11-15T16:19:03;17.50;99.90